createdAt,value
2023-04-17T00:00:36.511Z,2.50
2023-04-17T00:03:05.391Z,2.40
2023-04-17T00:05:32.883Z,2.50
2023-04-17T00:08:00.147Z,2.60
2023-04-17T00:10:27.452Z,2.60
2023-04-17T00:12:54.718Z,2.50
2023-04-17T00:15:22.121Z,2.50
2023-04-17T00:17:49.598Z,2.50
2023-04-17T00:20:16.907Z,2.50
2023-04-17T00:22:44.132Z,2.60
2023-04-17T00:25:11.347Z,2.60
2023-04-17T00:27:38.750Z,2.50
2023-04-17T00:30:07.597Z,2.40
2023-04-17T00:32:34.877Z,2.40
2023-04-17T00:35:02.129Z,2.40
2023-04-17T00:37:29.637Z,2.40
2023-04-17T00:39:56.879Z,2.30
2023-04-17T00:42:24.015Z,2.30
2023-04-17T00:44:51.253Z,2.20
2023-04-17T00:47:19.333Z,2.30
2023-04-17T00:49:46.674Z,2.10
2023-04-17T00:52:26.924Z,2.00
2023-04-17T00:54:55.641Z,1.90
2023-04-17T00:57:25.320Z,2.10
2023-04-17T00:59:53.536Z,2.10
2023-04-17T01:02:20.967Z,2.10
2023-04-17T01:04:48.381Z,2.00
2023-04-17T01:07:15.879Z,2.00
2023-04-17T01:12:23.808Z,1.90
2023-04-17T01:14:56.140Z,1.80
2023-04-17T01:17:25.112Z,1.70
2023-04-17T01:19:53.464Z,1.70
2023-04-17T01:22:21.512Z,1.70
2023-04-17T01:24:49.459Z,1.80
2023-04-17T01:27:16.708Z,1.80
2023-04-17T01:29:44.434Z,1.80
2023-04-17T01:32:11.732Z,1.70
2023-04-17T01:34:38.926Z,1.70
2023-04-17T01:37:06.413Z,1.70
2023-04-17T01:39:33.718Z,1.60
2023-04-17T01:42:00.958Z,1.60
2023-04-17T01:44:28.254Z,1.70
2023-04-17T01:46:55.524Z,1.60
2023-04-17T01:49:22.774Z,1.60
2023-04-17T01:51:50.043Z,1.60
2023-04-17T01:54:17.235Z,1.60
2023-04-17T01:56:44.422Z,1.50
2023-04-17T01:59:12.022Z,1.60
2023-04-17T02:01:39.336Z,1.40
2023-04-17T02:04:07.259Z,1.30
2023-04-17T02:06:34.610Z,1.30
2023-04-17T02:09:02.262Z,1.20
2023-04-17T02:11:29.544Z,1.40
2023-04-17T02:13:56.802Z,1.40
2023-04-17T02:16:24.391Z,1.40
2023-04-17T02:18:52.851Z,1.30
2023-04-17T02:21:21.139Z,1.30
2023-04-17T02:23:48.445Z,1.20
2023-04-17T02:26:15.780Z,1.30
2023-04-17T02:28:46.412Z,1.20
2023-04-17T02:31:13.673Z,1.20
2023-04-17T02:33:41.069Z,1.30
2023-04-17T02:36:13.233Z,1.30
2023-04-17T02:38:40.466Z,1.30
2023-04-17T02:41:07.932Z,1.20
2023-04-17T02:43:35.626Z,1.20
2023-04-17T02:46:06.008Z,1.30
2023-04-17T02:48:33.363Z,1.30
2023-04-17T02:51:00.674Z,1.40
2023-04-17T02:53:27.971Z,1.40
2023-04-17T02:55:55.222Z,1.40
2023-04-17T02:58:22.664Z,1.40
2023-04-17T03:00:49.974Z,1.40
2023-04-17T03:03:17.464Z,1.30
2023-04-17T03:05:44.772Z,1.40
2023-04-17T03:08:12.082Z,1.30
2023-04-17T03:10:39.655Z,1.30
2023-04-17T03:13:10.044Z,1.40
2023-04-17T03:15:37.473Z,1.50
2023-04-17T03:18:05.275Z,1.50
2023-04-17T03:20:32.766Z,1.40
2023-04-17T03:23:00.262Z,1.40
2023-04-17T03:25:28.079Z,1.50
2023-04-17T03:27:55.669Z,1.50
2023-04-17T03:30:23.146Z,1.50
2023-04-17T03:32:50.425Z,1.60
2023-04-17T03:35:17.901Z,1.50
2023-04-17T03:37:45.174Z,1.50
2023-04-17T03:40:12.896Z,1.60
2023-04-17T03:42:40.427Z,1.60
2023-04-17T03:45:08.939Z,1.60
2023-04-17T03:47:36.196Z,1.50
2023-04-17T03:50:03.878Z,1.50
2023-04-17T03:52:31.527Z,1.50
2023-04-17T03:55:01.211Z,1.50
2023-04-17T03:57:28.615Z,1.50
2023-04-17T03:59:56.272Z,1.50
2023-04-17T04:02:24.225Z,1.40
2023-04-17T04:04:52.191Z,1.40
2023-04-17T04:07:19.623Z,1.50
2023-04-17T04:09:46.960Z,1.50
2023-04-17T04:12:14.297Z,1.40
2023-04-17T04:14:42.173Z,1.60
2023-04-17T04:17:09.655Z,1.50
2023-04-17T04:19:36.876Z,1.50
2023-04-17T04:22:06.256Z,1.60
2023-04-17T04:24:34.111Z,1.60
2023-04-17T04:27:01.482Z,1.60
2023-04-17T04:29:28.860Z,1.60
2023-04-17T04:31:56.214Z,1.70
2023-04-17T04:34:23.541Z,1.60
2023-04-17T04:36:50.953Z,1.60
2023-04-17T04:39:18.822Z,1.60
2023-04-17T04:41:50.568Z,1.60
2023-04-17T04:44:19.592Z,1.70
2023-04-17T04:46:47.486Z,1.70
2023-04-17T04:49:14.948Z,1.60
2023-04-17T04:51:42.302Z,1.70
2023-04-17T04:54:09.597Z,1.60
2023-04-17T04:56:37.028Z,1.50
2023-04-17T04:59:04.245Z,1.60
2023-04-17T05:01:31.683Z,1.60
2023-04-17T05:03:59.105Z,1.60
2023-04-17T05:06:26.455Z,1.70
2023-04-17T05:08:53.847Z,1.70
2023-04-17T05:11:21.192Z,1.70
2023-04-17T05:13:48.501Z,1.80
2023-04-17T05:16:15.725Z,1.70
2023-04-17T05:18:43.003Z,1.70
2023-04-17T05:21:10.244Z,1.80
2023-04-17T05:23:37.420Z,1.70
2023-04-17T05:26:04.644Z,1.70
2023-04-17T05:28:31.898Z,1.70
2023-04-17T05:30:59.562Z,1.80
2023-04-17T05:33:26.821Z,1.80
2023-04-17T05:35:56.095Z,1.90
2023-04-17T05:38:23.717Z,1.90
2023-04-17T05:40:53.272Z,1.90
2023-04-17T05:43:20.467Z,1.90
2023-04-17T05:45:47.791Z,1.90
2023-04-17T05:48:15.384Z,1.90
2023-04-17T05:50:42.772Z,2.00
2023-04-17T05:53:10.106Z,2.10
2023-04-17T05:55:37.548Z,2.10
2023-04-17T05:58:16.832Z,2.20
2023-04-17T06:00:50.517Z,2.30
2023-04-17T06:03:18.640Z,2.40
2023-04-17T06:05:46.813Z,2.40
2023-04-17T06:08:14.297Z,2.50
2023-04-17T06:10:41.724Z,2.50
2023-04-17T06:13:09.031Z,2.50
2023-04-17T06:15:36.284Z,2.60
2023-04-17T06:18:03.512Z,2.70
2023-04-17T06:20:31.031Z,2.80
2023-04-17T06:22:58.342Z,2.90
2023-04-17T06:25:25.701Z,2.90
2023-04-17T06:27:52.973Z,3.00
2023-04-17T06:30:20.711Z,3.10
2023-04-17T06:32:48.116Z,3.10
2023-04-17T06:35:15.480Z,3.20
2023-04-17T06:37:42.617Z,3.20
2023-04-17T06:40:10.277Z,3.20
2023-04-17T06:42:37.551Z,3.20
2023-04-17T06:45:05.712Z,3.30
2023-04-17T06:47:33.080Z,3.30
2023-04-17T06:50:00.255Z,3.40
2023-04-17T06:52:27.545Z,3.40
2023-04-17T06:54:56.122Z,3.50
2023-04-17T06:57:23.691Z,3.50
2023-04-17T06:59:51.031Z,3.60
2023-04-17T07:02:18.377Z,3.60
2023-04-17T07:04:45.664Z,3.70
2023-04-17T07:07:13.059Z,3.70
2023-04-17T07:09:40.331Z,3.70
2023-04-17T07:12:07.610Z,3.80
2023-04-17T07:14:34.956Z,3.90
2023-04-17T07:17:02.201Z,3.90
2023-04-17T07:19:29.447Z,3.90
2023-04-17T07:21:56.635Z,3.90
2023-04-17T07:24:23.822Z,3.90
2023-04-17T07:26:51.154Z,4.00
2023-04-17T07:29:18.512Z,4.00
2023-04-17T07:31:45.825Z,4.00
2023-04-17T07:34:13.181Z,4.10
2023-04-17T07:36:40.470Z,4.10
2023-04-17T07:39:07.770Z,4.10
2023-04-17T07:41:35.087Z,4.20
2023-04-17T07:44:02.392Z,4.30
2023-04-17T07:46:29.696Z,4.30
2023-04-17T07:48:59.205Z,4.30
2023-04-17T07:51:26.434Z,4.30
2023-04-17T07:53:53.728Z,4.30
2023-04-17T07:56:21.248Z,4.40
2023-04-17T07:58:48.785Z,4.50
2023-04-17T08:01:16.072Z,4.50
2023-04-17T08:03:43.965Z,4.50
2023-04-17T08:06:11.725Z,4.60
2023-04-17T08:08:39.099Z,4.70
2023-04-17T08:11:06.404Z,4.80
2023-04-17T08:13:33.580Z,4.80
2023-04-17T08:16:00.821Z,4.80
2023-04-17T08:18:28.092Z,5.00
2023-04-17T08:20:55.317Z,5.10
2023-04-17T08:23:22.845Z,5.10
2023-04-17T08:25:50.234Z,5.20
2023-04-17T08:28:17.519Z,5.30
2023-04-17T08:30:44.739Z,5.40
2023-04-17T08:33:12.011Z,5.50
2023-04-17T08:35:39.394Z,5.50
2023-04-17T08:38:06.637Z,5.60
2023-04-17T08:40:34.009Z,6.00
2023-04-17T08:43:03.074Z,5.70
2023-04-17T08:45:30.843Z,5.80
2023-04-17T08:47:59.324Z,5.90
2023-04-17T08:50:27.116Z,6.00
2023-04-17T08:52:54.345Z,6.00
2023-04-17T08:55:24.556Z,6.00
2023-04-17T08:58:05.628Z,6.00
2023-04-17T09:00:36.189Z,6.10
2023-04-17T09:03:06.733Z,6.30
2023-04-17T09:05:35.195Z,6.40
2023-04-17T09:08:22.141Z,6.40
2023-04-17T09:10:52.261Z,6.50
2023-04-17T09:13:22.931Z,6.50
2023-04-17T09:16:06.130Z,6.60
2023-04-17T09:18:35.325Z,6.70
2023-04-17T09:21:04.681Z,6.80
2023-04-17T09:23:47.437Z,6.90
2023-04-17T09:26:20.215Z,7.10
2023-04-17T09:29:20.060Z,7.10
2023-04-17T09:31:47.236Z,7.20
2023-04-17T09:34:14.951Z,7.30
2023-04-17T09:36:43.960Z,7.30
2023-04-17T09:39:23.404Z,7.40
2023-04-17T09:41:51.222Z,7.30
2023-04-17T09:44:29.015Z,7.40
2023-04-17T09:46:57.162Z,7.50
2023-04-17T09:49:40.961Z,7.50
2023-04-17T09:52:08.799Z,7.60
2023-04-17T09:54:36.549Z,7.60
2023-04-17T09:57:11.226Z,7.60
2023-04-17T09:59:42.996Z,7.70
2023-04-17T10:02:12.736Z,7.80
2023-04-17T10:04:41.301Z,7.90
2023-04-17T10:07:09.108Z,8.00
2023-04-17T10:09:36.504Z,8.00
2023-04-17T10:12:06.294Z,8.10
2023-04-17T10:14:36.756Z,8.10
2023-04-17T10:17:27.560Z,8.20
2023-04-17T10:19:55.339Z,8.30
2023-04-17T10:22:22.642Z,8.50
2023-04-17T10:24:52.676Z,8.60
2023-04-17T10:27:25.626Z,8.80
2023-04-17T10:29:56.470Z,9.00
2023-04-17T10:32:26.516Z,9.10
2023-04-17T10:35:23.991Z,9.40
2023-04-17T10:37:51.200Z,9.50
2023-04-17T10:40:24.822Z,9.50
2023-04-17T10:43:19.478Z,9.80
2023-04-17T10:46:13.885Z,9.90
2023-04-17T10:48:49.757Z,10.00
2023-04-17T10:51:23.164Z,10.00
2023-04-17T10:54:01.832Z,9.90
2023-04-17T10:56:44.722Z,9.90
2023-04-17T10:59:17.677Z,10.00
2023-04-17T11:01:50.597Z,10.30
2023-04-17T11:04:31.618Z,10.50
2023-04-17T11:06:58.953Z,10.50
2023-04-17T11:09:29.226Z,10.90
2023-04-17T11:12:00.514Z,11.20
2023-04-17T11:14:28.078Z,10.90
2023-04-17T11:16:56.170Z,10.90
2023-04-17T11:19:26.015Z,10.80
2023-04-17T11:21:55.842Z,10.60
2023-04-17T11:24:31.551Z,10.80
2023-04-17T11:27:01.518Z,11.20
2023-04-17T11:29:29.361Z,11.10
2023-04-17T11:31:58.408Z,10.90
2023-04-17T11:34:27.476Z,10.70
2023-04-17T11:36:58.583Z,10.60
2023-04-17T11:39:32.849Z,10.60
2023-04-17T11:42:01.385Z,10.50
2023-04-17T11:44:29.350Z,10.40
2023-04-17T11:46:58.756Z,10.40
2023-04-17T11:49:37.651Z,10.30
2023-04-17T11:52:06.105Z,10.30
2023-04-17T11:54:38.923Z,10.10
2023-04-17T11:57:13.163Z,10.20
2023-04-17T11:59:42.444Z,10.10
2023-04-17T12:02:10.549Z,10.30
2023-04-17T12:04:38.937Z,10.30
2023-04-17T12:07:08.052Z,10.40
2023-04-17T12:09:36.733Z,10.40
2023-04-17T12:12:08.270Z,10.30
2023-04-17T12:14:35.788Z,10.30
2023-04-17T12:17:03.056Z,10.30
2023-04-17T12:19:30.295Z,10.30
2023-04-17T12:21:57.652Z,10.30
2023-04-17T12:24:25.092Z,10.30
2023-04-17T12:26:53.272Z,10.40
2023-04-17T12:29:36.273Z,10.40
2023-04-17T12:32:09.634Z,10.40
2023-04-17T12:34:37.198Z,10.30
2023-04-17T12:37:04.512Z,10.30
2023-04-17T12:39:32.790Z,10.20
2023-04-17T12:42:02.930Z,10.20
2023-04-17T12:44:31.916Z,10.20
2023-04-17T12:46:59.170Z,10.20
2023-04-17T12:49:26.449Z,10.20
2023-04-17T12:51:53.683Z,10.20
2023-04-17T12:54:20.883Z,10.20
2023-04-17T12:56:48.283Z,10.20
2023-04-17T12:59:16.451Z,10.20
2023-04-17T13:01:43.685Z,10.20
2023-04-17T13:04:11.285Z,10.10
2023-04-17T13:06:38.879Z,10.10
2023-04-17T13:09:06.199Z,10.00
2023-04-17T13:11:33.868Z,10.10
2023-04-17T13:14:01.160Z,10.20
2023-04-17T13:16:28.580Z,10.20
2023-04-17T13:18:55.856Z,10.20
2023-04-17T13:21:23.110Z,10.20
2023-04-17T13:23:50.423Z,10.30
2023-04-17T13:26:18.204Z,10.30
2023-04-17T13:28:45.428Z,10.40
2023-04-17T13:31:12.620Z,10.40
2023-04-17T13:33:39.858Z,10.30
2023-04-17T13:36:08.187Z,10.30
2023-04-17T13:38:35.419Z,10.30
2023-04-17T13:41:02.764Z,10.30
2023-04-17T13:43:30.169Z,10.40
2023-04-17T13:45:57.505Z,10.30
2023-04-17T13:48:24.900Z,10.30
2023-04-17T13:50:52.114Z,10.30
2023-04-17T13:53:20.278Z,10.30
2023-04-17T13:55:47.563Z,10.30
2023-04-17T13:58:14.874Z,10.20
2023-04-17T14:00:42.320Z,10.20
2023-04-17T14:03:10.195Z,10.20
2023-04-17T14:05:37.682Z,10.20
2023-04-17T14:08:05.659Z,10.10
2023-04-17T14:10:32.921Z,10.10
2023-04-17T14:13:00.329Z,10.10
2023-04-17T14:15:28.381Z,10.10
2023-04-17T14:17:56.950Z,10.10
2023-04-17T14:20:24.236Z,10.10
2023-04-17T14:22:51.634Z,10.20
2023-04-17T14:25:18.874Z,10.10
2023-04-17T14:27:46.225Z,10.10
2023-04-17T14:30:13.870Z,10.20
2023-04-17T14:32:41.132Z,10.30
2023-04-17T14:35:09.007Z,10.40
2023-04-17T14:37:36.338Z,10.30
2023-04-17T14:40:03.975Z,10.40
2023-04-17T14:42:32.688Z,10.50
2023-04-17T14:45:04.203Z,10.50
2023-04-17T14:47:32.353Z,10.60
2023-04-17T14:49:59.651Z,10.60
2023-04-17T14:52:27.001Z,10.60
2023-04-17T14:54:54.242Z,10.60
2023-04-17T14:57:21.445Z,10.60
2023-04-17T14:59:48.695Z,10.60
2023-04-17T15:02:16.034Z,10.70
2023-04-17T15:04:43.550Z,10.60
2023-04-17T15:07:10.990Z,10.50
2023-04-17T15:09:38.260Z,10.50
2023-04-17T15:12:06.090Z,10.40
2023-04-17T15:14:33.565Z,10.40
2023-04-17T15:17:03.268Z,10.40
2023-04-17T15:19:30.524Z,10.40
2023-04-17T15:21:57.771Z,10.40
2023-04-17T15:24:25.003Z,10.20
2023-04-17T15:26:52.495Z,10.10
2023-04-17T15:29:19.683Z,10.00
2023-04-17T15:31:47.099Z,10.00
2023-04-17T15:34:14.555Z,10.00
2023-04-17T15:36:42.228Z,10.00
2023-04-17T15:39:09.558Z,10.00
2023-04-17T15:41:40.389Z,9.90
2023-04-17T15:44:07.758Z,9.90
2023-04-17T15:46:35.182Z,9.90
2023-04-17T15:49:21.557Z,9.90
2023-04-17T15:51:48.902Z,10.00
2023-04-17T15:54:16.184Z,9.90
2023-04-17T15:56:43.352Z,9.90
2023-04-17T15:59:10.701Z,9.90
2023-04-17T16:01:38.178Z,9.90
2023-04-17T16:04:05.930Z,9.80
2023-04-17T16:06:33.895Z,9.80
2023-04-17T16:09:01.660Z,9.80
2023-04-17T16:11:28.811Z,9.80
2023-04-17T16:13:55.994Z,9.80
2023-04-17T16:16:23.309Z,9.80
2023-04-17T16:18:50.557Z,9.80
2023-04-17T16:21:17.965Z,9.90
2023-04-17T16:23:45.282Z,9.90
2023-04-17T16:26:13.992Z,10.00
2023-04-17T16:28:41.361Z,10.00
2023-04-17T16:31:08.930Z,9.90
2023-04-17T16:33:36.216Z,9.90
2023-04-17T16:36:03.605Z,9.90
2023-04-17T16:38:30.818Z,10.00
2023-04-17T16:40:58.129Z,10.00
2023-04-17T16:43:26.611Z,9.90
2023-04-17T16:45:53.808Z,9.90
2023-04-17T16:48:21.318Z,9.80
2023-04-17T16:50:48.837Z,9.80
2023-04-17T16:53:16.743Z,9.80
2023-04-17T16:55:44.296Z,9.70
2023-04-17T16:58:11.653Z,9.70
2023-04-17T17:00:39.467Z,9.60
2023-04-17T17:03:06.930Z,9.60
2023-04-17T17:05:34.483Z,9.60
2023-04-17T17:08:02.276Z,9.60
2023-04-17T17:10:30.410Z,9.50
2023-04-17T17:12:57.608Z,9.40
2023-04-17T17:15:25.175Z,9.20
2023-04-17T17:17:52.736Z,9.10
2023-04-17T17:20:20.171Z,9.00
2023-04-17T17:22:47.432Z,8.90
2023-04-17T17:25:15.337Z,8.80
2023-04-17T17:27:42.625Z,8.60
2023-04-17T17:30:11.207Z,8.60
2023-04-17T17:32:38.459Z,8.60
2023-04-17T17:35:06.307Z,8.50
2023-04-17T17:37:33.504Z,8.40
2023-04-17T17:40:01.009Z,8.40
2023-04-17T17:42:28.249Z,8.50
2023-04-17T17:44:55.708Z,8.50
2023-04-17T17:47:22.859Z,8.50
2023-04-17T17:49:50.474Z,8.40
2023-04-17T17:52:18.106Z,8.30
2023-04-17T17:54:45.531Z,8.30
2023-04-17T17:57:13.118Z,8.20
2023-04-17T17:59:40.431Z,8.10
2023-04-17T18:02:07.945Z,8.00
2023-04-17T18:04:35.659Z,7.90
2023-04-17T18:07:03.018Z,7.80
2023-04-17T18:09:30.587Z,7.70
2023-04-17T18:11:57.764Z,7.60
2023-04-17T18:14:25.017Z,7.60
2023-04-17T18:16:52.273Z,7.50
2023-04-17T18:19:19.489Z,7.50
2023-04-17T18:21:47.812Z,7.40
2023-04-17T18:24:15.310Z,7.40
2023-04-17T18:26:42.765Z,7.30
2023-04-17T18:29:10.355Z,7.10
2023-04-17T18:31:38.192Z,7.10
2023-04-17T18:34:05.589Z,7.00
2023-04-17T18:36:33.070Z,6.90
2023-04-17T18:39:00.626Z,6.80
2023-04-17T18:41:27.830Z,6.60
2023-04-17T18:43:55.370Z,6.70
2023-04-17T18:46:22.898Z,6.60
2023-04-17T18:48:50.173Z,6.50
2023-04-17T18:51:17.750Z,6.40
2023-04-17T18:53:45.323Z,6.50
2023-04-17T18:56:13.474Z,6.40
2023-04-17T18:58:41.091Z,6.20
2023-04-17T19:01:09.255Z,6.00
2023-04-17T19:03:40.052Z,6.00
2023-04-17T19:06:07.422Z,6.10
2023-04-17T19:08:35.904Z,6.00
2023-04-17T19:11:03.469Z,5.90
2023-04-17T19:15:58.978Z,5.70
2023-04-17T19:18:26.502Z,5.70
2023-04-17T19:20:53.786Z,5.60
2023-04-17T19:23:21.233Z,5.50
2023-04-17T19:25:54.808Z,5.60
2023-04-17T19:28:23.809Z,5.50
2023-04-17T19:30:51.679Z,5.40
2023-04-17T19:33:19.163Z,5.40
2023-04-17T19:35:46.964Z,5.20
2023-04-17T19:38:16.800Z,5.20
2023-04-17T19:41:10.128Z,5.20
2023-04-17T19:43:37.459Z,5.10
2023-04-17T19:46:04.708Z,5.10
2023-04-17T19:48:31.982Z,5.10
2023-04-17T19:50:59.194Z,5.00
2023-04-17T19:53:33.781Z,5.10
2023-04-17T19:56:01.355Z,4.90
2023-04-17T19:58:29.953Z,4.80
2023-04-17T20:00:58.906Z,4.70
2023-04-17T20:03:28.281Z,4.80
2023-04-17T20:06:02.010Z,4.80
2023-04-17T20:08:29.684Z,4.80
2023-04-17T20:10:57.316Z,4.70
2023-04-17T20:13:24.832Z,4.60
2023-04-17T20:15:53.845Z,4.50
2023-04-17T20:18:21.305Z,4.50
2023-04-17T20:20:48.564Z,4.50
2023-04-17T20:23:16.149Z,4.50
2023-04-17T20:25:43.335Z,4.50
2023-04-17T20:28:10.845Z,4.50
2023-04-17T20:30:38.241Z,4.40
2023-04-17T20:33:05.833Z,4.20
2023-04-17T20:35:33.189Z,4.30
2023-04-17T20:38:00.373Z,4.30
2023-04-17T20:40:27.982Z,4.30
2023-04-17T20:42:55.271Z,4.30
2023-04-17T20:45:22.564Z,4.30
2023-04-17T20:52:48.326Z,4.20
2023-04-17T20:55:15.655Z,4.00
2023-04-17T20:57:42.894Z,4.10
2023-04-17T21:00:10.996Z,4.00
2023-04-17T21:02:38.635Z,3.90
2023-04-17T21:05:07.809Z,3.90
2023-04-17T21:07:36.010Z,3.80
2023-04-17T21:10:03.915Z,4.00
2023-04-17T21:12:31.332Z,4.00
2023-04-17T21:14:58.587Z,3.90
2023-04-17T21:17:25.929Z,3.80
2023-04-17T21:19:53.148Z,3.70
2023-04-17T21:22:20.319Z,3.70
2023-04-17T21:24:47.560Z,3.90
2023-04-17T21:27:14.849Z,3.90
2023-04-17T21:29:42.317Z,3.90
2023-04-17T21:32:09.526Z,3.90
2023-04-17T21:34:36.755Z,3.80
2023-04-17T21:37:04.303Z,3.70
2023-04-17T21:39:33.323Z,3.70
2023-04-17T21:42:00.941Z,3.70
2023-04-17T21:44:28.648Z,3.60
2023-04-17T21:46:55.897Z,3.60
2023-04-17T21:49:23.638Z,3.70
2023-04-17T21:51:51.137Z,3.80
2023-04-17T21:54:18.422Z,3.70
2023-04-17T21:56:45.972Z,3.50
2023-04-17T21:59:13.219Z,3.60
2023-04-17T22:01:40.647Z,3.50
2023-04-17T22:04:08.022Z,3.60
2023-04-17T22:06:36.979Z,3.60
2023-04-17T22:09:04.358Z,3.60
2023-04-17T22:11:31.540Z,3.60
2023-04-17T22:13:58.924Z,3.70
2023-04-17T22:16:26.266Z,3.50
2023-04-17T22:18:53.509Z,3.50
2023-04-17T22:21:39.445Z,3.50
2023-04-17T22:24:25.548Z,3.50
2023-04-17T22:27:11.340Z,3.60
2023-04-17T22:29:38.650Z,3.40
2023-04-17T22:32:06.060Z,3.40
2023-04-17T22:35:10.579Z,3.40
2023-04-17T22:38:15.414Z,3.40
2023-04-17T22:41:38.497Z,3.40
2023-04-17T22:44:05.805Z,3.30
2023-04-17T22:46:33.094Z,3.40
2023-04-17T22:49:00.570Z,3.30
2023-04-17T22:51:27.715Z,3.20
2023-04-17T22:53:55.636Z,3.30
2023-04-17T22:56:22.918Z,3.20
2023-04-17T22:58:51.167Z,3.10
2023-04-17T23:01:18.488Z,3.10
2023-04-17T23:03:45.786Z,3.10
2023-04-17T23:06:13.123Z,3.20
2023-04-17T23:08:40.471Z,3.30
2023-04-17T23:11:08.047Z,3.20
2023-04-17T23:13:35.349Z,3.20
2023-04-17T23:16:02.647Z,3.20
2023-04-17T23:18:30.044Z,3.20
2023-04-17T23:20:57.360Z,3.10
2023-04-17T23:23:24.589Z,3.00
2023-04-17T23:25:52.003Z,3.10
2023-04-17T23:28:19.454Z,3.00
2023-04-17T23:30:46.942Z,3.10
2023-04-17T23:33:14.218Z,3.10
2023-04-17T23:35:41.501Z,3.00
2023-04-17T23:38:09.041Z,2.90
2023-04-17T23:40:36.258Z,2.90
2023-04-17T23:43:03.530Z,2.80
2023-04-17T23:45:30.795Z,2.80
2023-04-17T23:47:58.317Z,2.90
2023-04-17T23:50:25.558Z,2.80
2023-04-17T23:52:52.863Z,2.80
2023-04-17T23:55:20.448Z,2.70
2023-04-17T23:57:47.879Z,2.80
